Data for 09/10/2008

Time Sea-Level Adjusted Pressure Absolute Pressure Temperature Relative Humidity Dew Point   
(mb) (inHg) (mb) (inHg) (C) (F) (%) (C) (F)
00:05 1011 29.85 840 24.81 13.2 55.7 55 4.4 40
00:10 1011 29.85 840 24.81 13.4 56 55 4.6 40.2
00:15 1011 29.85 840 24.81 13.2 55.8 55 4.5 40.1
00:20 1011 29.85 840 24.81 13.3 55.9 55 4.4 39.9
00:25 1011 29.85 840 24.81 13.4 56 54 4.3 39.8
00:30 1011 29.85 840 24.81 13.2 55.8 55 4.6 40.2
00:35 1011 29.85 840 24.81 13.1 55.5 59 5.2 41.4
00:40 1011 29.85 841 24.83 12.7 54.9 59 5 40.9
00:45 1012 29.88 841 24.83 12.6 54.7 55 4 39.1
00:50 1012 29.88 841 24.83 13 55.4 55 4.2 39.5
00:55 1012 29.88 841 24.83 13.2 55.7 55 4.3 39.7
01:00 1012 29.88 841 24.83 13.3 56 55 4.6 40.4
01:05 1012 29.88 841 24.83 13.1 55.5 58 5 41
01:10 1012 29.88 841 24.83 12.5 54.5 63 5.6 42.1
01:15 1011 29.85 841 24.83 12.4 54.2 57 4.1 39.4
01:20 1011 29.85 841 24.83 13.2 55.7 57 5 41
01:25 1011 29.85 841 24.83 12.9 55.1 58 4.9 40.8
01:30 1011 29.85 840 24.81 12.8 55 56 4.4 39.9
01:35 1011 29.85 841 24.83 13.1 55.6 59 5.4 41.6
01:40 1011 29.85 841 24.83 13.2 55.7 57 5 40.9
01:45 1012 29.88 841 24.83 13.2 55.8 56 4.6 40.4
01:50 1011 29.85 841 24.83 13.2 55.8 55 4.5 40
01:55 1012 29.88 841 24.83 13.1 55.6 57 4.9 40.9
02:00 1012 29.88 841 24.83 13 55.5 56 4.7 40.4
02:05 1012 29.88 841 24.83 13.1 55.5 61 5.9 42.6
02:10 1012 29.88 841 24.83 13.7 56.6 58 5.5 41.9
02:15 1012 29.88 841 24.83 14.3 57.8 58 6.3 43.4
02:20 1012 29.88 841 24.83 13.5 56.2 63 6.5 43.8
02:25 1012 29.88 841 24.83 13.1 55.6 64 6.5 43.7
02:30 1012 29.88 841 24.83 12.9 55.2 67 6.9 44.5
02:35 1012 29.88 841 24.83 13.3 56 66 7.1 44.8
02:40 1012 29.88 841 24.83 12.7 54.8 71 7.6 45.7
02:45 1012 29.88 841 24.83 12.2 53.9 69 6.7 44.1
02:50 1012 29.88 842 24.86 12.7 54.9 68 7 44.5
02:55 1012 29.88 842 24.86 12.6 54.7 68 7 44.6
03:00 1012 29.88 841 24.83 12.5 54.5 73 7.9 46.2
03:05 1012 29.88 841 24.83 12.1 53.8 76 8 46.3
03:10 1012 29.88 841 24.83 11.6 52.9 78 7.9 46.3
03:15 1012 29.88 841 24.83 11.5 52.6 73 6.8 44.3
03:20 1011 29.85 841 24.83 11.8 53.2 74 7.4 45.3
03:25 1011 29.85 840 24.81 11.5 52.7 73 7 44.5
03:30 1012 29.88 841 24.83 11.8 53.3 74 7.4 45.3
03:35 1012 29.88 841 24.83 11.6 52.9 79 8 46.5
03:40 1012 29.88 841 24.83 11.1 52 81 7.9 46.3
03:45 1012 29.88 841 24.83 11.4 52.6 69 6 42.8
03:50 1012 29.88 841 24.83 12.2 53.9 70 7 44.6
03:55 1012 29.88 841 24.83 12.2 53.9 73 7.5 45.5
04:00 1012 29.88 841 24.83 11.9 53.4 73 7.3 45.1
04:05 1012 29.88 841 24.83 11.9 53.5 70 6.7 44.1
04:10 1012 29.88 841 24.83 12.2 53.9 67 6.4 43.4
04:15 1012 29.88 841 24.83 12.3 54.1 67 6.4 43.5
04:20 1012 29.88 841 24.83 12.1 53.9 71 7.1 44.8
04:25 1012 29.88 841 24.83 11.7 53 69 6.3 43.3
04:30 1012 29.88 841 24.83 12 53.5 70 6.7 44
04:35 1012 29.88 841 24.83 12.1 53.8 66 6 42.7
04:40 1012 29.88 841 24.83 12.4 54.3 66 6.3 43.4
04:45 1012 29.88 841 24.83 12.1 53.8 67 6.2 43.1
04:50 1012 29.88 841 24.83 12 53.6 69 6.5 43.7
04:55 1012 29.88 841 24.83 10.9 51.5 69 5.5 41.9
05:00 1012 29.88 841 24.83 9.8 49.7 74 5.5 41.9
05:05 1012 29.88 842 24.86 9.2 48.5 77 5.3 41.6
05:10 1013 29.91 842 24.86 8.7 47.6 78 5 41
05:15 1013 29.91 842 24.86 8.4 47.1 79 5 41
05:20 1013 29.91 842 24.86 8.2 46.8 81 5.1 41.2
05:25 1013 29.91 842 24.86 7.9 46.3 82 5 41
05:30 1013 29.91 842 24.86 7.8 46 83 5.1 41.1
05:35 1013 29.91 842 24.86 7.7 45.8 83 5 41
05:40 1013 29.91 842 24.86 7.7 45.9 83 5 41
05:45 1013 29.91 842 24.86 7.7 45.8 83 4.9 40.8
05:50 1013 29.91 842 24.86 7.7 45.9 83 4.9 40.9
05:55 1013 29.91 842 24.86 7.7 45.8 82 4.8 40.6
06:00 1013 29.91 843 24.89 7.8 46 82 4.8 40.7
06:05 1014 29.94 843 24.89 7.8 46 82 4.9 40.7
06:10 1014 29.94 843 24.89 7.7 45.8 82 4.9 40.7
06:15 1014 29.94 843 24.89 7.6 45.6 83 4.8 40.7
06:20 1014 29.94 843 24.89 7.5 45.5 83 4.7 40.5
06:25 1014 29.94 843 24.89 7.4 45.4 83 4.7 40.5
06:30 1014 29.94 843 24.89 7.5 45.5 82 4.7 40.5
06:35 1014 29.94 843 24.89 7.5 45.4 83 4.7 40.5
06:40 1014 29.94 843 24.89 7.3 45.2 83 4.6 40.3
06:45 1014 29.94 843 24.89 7.3 45.1 83 4.6 40.3
06:50 1014 29.94 843 24.89 7.2 45 83 4.6 40.3
06:55 1014 29.94 843 24.89 7.2 44.9 84 4.6 40.3
07:00 1014 29.94 843 24.89 7.1 44.9 84 4.6 40.2
07:05 1014 29.94 843 24.89 7.1 44.7 84 4.6 40.3
07:10 1014 29.94 843 24.89 7.1 44.7 84 4.5 40.2
07:15 1014 29.94 843 24.89 7.2 45 83 4.5 40.1
07:20 1014 29.94 844 24.92 7.2 45 84 4.7 40.4
07:25 1015 29.97 844 24.92 7.2 44.9 84 4.6 40.3
07:30 1015 29.97 844 24.92 7.3 45.1 83 4.7 40.4
07:35 1015 29.97 844 24.92 7.3 45.2 84 4.8 40.6
07:40 1015 29.97 844 24.92 7.1 44.8 85 4.8 40.6
07:45 1015 29.97 844 24.92 7.1 44.7 85 4.7 40.5
07:50 1015 29.97 844 24.92 7.1 44.9 85 4.8 40.6
07:55 1015 29.97 844 24.92 7.3 45.1 85 4.9 40.8
08:00 1015 29.97 844 24.92 7.4 45.2 84 4.8 40.6
08:05 1015 29.97 844 24.92 7.3 45.2 85 5 41
08:10 1015 29.97 844 24.92 7.2 45 85 5 40.9
08:15 1015 29.97 844 24.92 7.2 44.9 85 4.8 40.6
08:20 1015 29.97 844 24.92 7.1 44.8 85 4.8 40.7
08:25 1015 29.97 844 24.92 7.3 45.1 85 4.9 40.8
08:30 1015 29.97 844 24.92 7.3 45.1 84 4.7 40.5
08:35 1015 29.97 845 24.95 7.3 45.2 84 4.8 40.6
08:40 1015 29.97 845 24.95 7.4 45.2 84 4.8 40.7
08:45 1015 29.97 845 24.95 7.4 45.3 84 4.8 40.7
08:50 1015 29.97 845 24.95 7.5 45.4 82 4.7 40.4
08:55 1015 29.97 845 24.95 7.5 45.5 83 4.7 40.5
09:00 1016 30 845 24.95 7.6 45.6 82 4.6 40.4
09:05 1015 29.97 845 24.95 7.6 45.6 83 4.8 40.7
09:10 1016 30 845 24.95 7.7 45.8 82 4.7 40.5
09:15 1016 30 845 24.95 7.7 45.9 81 4.7 40.5
09:20 1016 30 845 24.95 7.9 46.3 80 4.6 40.4
09:25 1016 30 845 24.95 7.9 46.2 79 4.4 40
09:30 1016 30 845 24.95 8 46.5 80 4.8 40.7
09:35 1016 30 845 24.95 8.3 46.9 79 4.8 40.7
09:40 1016 30 845 24.95 8.6 47.5 76 4.7 40.4
09:45 1016 30 845 24.95 8.8 47.8 76 4.9 40.7
09:50 1016 30 845 24.95 8.7 47.6 76 4.8 40.6
09:55 1016 30 845 24.95 8.4 47.1 78 4.7 40.5
10:00 1016 30 845 24.95 8.4 47.1 78 4.8 40.6
10:05 1016 30 845 24.95 8.4 47 79 4.9 40.8
10:10 1016 30 845 24.95 8.3 46.9 78 4.7 40.5
10:15 1016 30 845 24.95 8 46.4 82 5.2 41.3
10:20 1016 30 845 24.95 7.8 46.1 84 5.2 41.4
10:25 1016 30 845 24.95 7.8 46 84 5.2 41.3
10:30 1016 30 845 24.95 7.7 45.9 85 5.3 41.5
10:35 1016 30 845 24.95 7.8 46.1 85 5.4 41.8
10:40 1016 30 845 24.95 7.8 46 84 5.2 41.4
10:45 1016 30 846 24.98 7.9 46.1 82 5 41
10:50 1016 30 846 24.98 8 46.3 82 5 41.1
10:55 1017 30.03 846 24.98 8 46.4 82 5.1 41.3
11:00 1017 30.03 846 24.98 8.2 46.7 81 5.2 41.3
11:05 1016 30 846 24.98 8.5 47.3 78 5 40.9
11:10 1016 30 846 24.98 8.7 47.6 78 5 41
11:15 1017 30.03 846 24.98 8.7 47.7 77 4.9 40.7
11:20 1017 30.03 846 24.98 8.5 47.3 77 4.8 40.6
11:25 1017 30.03 846 24.98 8.6 47.5 78 5 41.1
11:30 1017 30.03 846 24.98 8.7 47.6 76 4.7 40.5
11:35 1017 30.03 846 24.98 8.4 47 78 4.7 40.4
11:40 1017 30.03 846 24.98 8.2 46.8 79 4.8 40.7
11:45 1017 30.03 846 24.98 8.1 46.6 83 5.4 41.8
11:50 1017 30.03 846 24.98 8.1 46.7 82 5.3 41.6
11:55 1017 30.03 846 24.98 7.8 46.1 84 5.4 41.7
12:00 1017 30.03 846 24.98 7.4 45.4 86 5.3 41.5
12:05 1017 30.03 846 24.98 7.3 45.2 86 5.1 41.2
12:10 1017 30.03 846 24.98 7.6 45.7 87 5.7 42.2
12:15 1017 30.03 846 24.98 8.1 46.6 87 6.1 42.9
12:20 1017 30.03 846 24.98 8.2 46.8 84 5.6 42.1
12:25 1017 30.03 846 24.98 8 46.3 83 5.3 41.6
12:30 1017 30.03 846 24.98 7.8 46.1 83 5.2 41.3
12:35 1017 30.03 846 24.98 7.9 46.1 82 5.1 41.1
12:40 1017 30.03 847 25.01 7.9 46.3 83 5.2 41.4
12:45 1017 30.03 847 25.01 8 46.5 83 5.3 41.5
12:50 1017 30.03 847 25.01 8.2 46.7 81 5.1 41.2
12:55 1017 30.03 847 25.01 8.3 47 81 5.2 41.3
13:00 1017 30.03 847 25.01 8.6 47.4 81 5.5 41.9
13:05 1017 30.03 847 25.01 8.6 47.5 81 5.6 42.1
13:10 1017 30.03 847 25.01 8.6 47.4 83 5.8 42.5
13:15 1017 30.03 847 25.01 8.6 47.5 82 5.8 42.4
13:20 1018 30.06 847 25.01 8.7 47.6 83 5.9 42.6
13:25 1018 30.06 847 25.01 8.5 47.4 85 6.1 43
13:30 1018 30.06 847 25.01 8.3 46.9 82 5.4 41.7
13:35 1018 30.06 847 25.01 8 46.4 85 5.7 42.3
13:40 1018 30.06 847 25.01 8 46.3 84 5.4 41.7
13:45 1018 30.06 847 25.01 7.9 46.2 85 5.6 42
13:50 1018 30.06 847 25.01 7.7 45.8 87 5.6 42.1
13:55 1018 30.06 847 25.01 7.7 45.8 86 5.5 41.9
14:00 1018 30.06 847 25.01 7.6 45.7 85 5.3 41.5
14:05 1018 30.06 847 25.01 7.7 45.9 85 5.3 41.5
14:10 1018 30.06 847 25.01 8.1 46.5 83 5.3 41.5
14:15 1018 30.06 847 25.01 8.2 46.8 84 5.6 42.1
14:20 1018 30.06 847 25.01 8.4 47.2 81 5.3 41.6
14:25 1018 30.06 847 25.01 8.5 47.2 82 5.5 41.9
14:30 1018 30.06 847 25.01 8.4 47.1 82 5.6 42.1
14:35 1018 30.06 847 25.01 8.1 46.5 83 5.4 41.7
14:40 1018 30.06 847 25.01 8 46.4 82 5.2 41.3
14:45 1018 30.06 847 25.01 8.2 46.8 82 5.4 41.7
14:50 1018 30.06 847 25.01 8.1 46.6 79 4.8 40.6
14:55 1018 30.06 847 25.01 7.8 46.1 82 5 41
15:00 1018 30.06 848 25.04 7.9 46.2 82 5.1 41.2
15:05 1018 30.06 848 25.04 8 46.3 82 5.1 41.3
15:10 1018 30.06 848 25.04 7.8 46 82 5 40.9
15:15 1018 30.06 848 25.04 7.7 45.9 83 5 41
15:20 1018 30.06 848 25.04 7.9 46.1 82 5.1 41.1
15:25 1018 30.06 848 25.04 7.8 46 83 5.1 41.2
15:30 1019 30.09 848 25.04 7.8 46 82 4.9 40.7
15:35 1019 30.09 848 25.04 7.6 45.7 82 4.7 40.4
15:40 1019 30.09 848 25.04 7.6 45.6 82 4.7 40.5
15:45 1019 30.09 848 25.04 7.7 45.9 82 4.9 40.8
15:50 1019 30.09 848 25.04 7.7 45.9 83 5 40.9
15:55 1019 30.09 848 25.04 7.7 45.8 81 4.7 40.5
16:00 1019 30.09 848 25.04 7.7 45.8 82 4.8 40.6
16:05 1019 30.09 848 25.04 7.7 45.8 83 4.9 40.9
16:10 1019 30.09 848 25.04 7.8 46.1 82 4.9 40.9
16:15 1019 30.09 848 25.04 7.8 46.1 83 5.1 41.2
16:20 1019 30.09 848 25.04 7.7 45.9 83 5 41
16:25 1019 30.09 848 25.04 7.5 45.5 85 5.1 41.1
16:30 1019 30.09 848 25.04 7.5 45.5 84 5 40.9
16:35 1019 30.09 848 25.04 7.4 45.4 86 5.2 41.4
16:40 1019 30.09 848 25.04 7.4 45.4 86 5.3 41.6
16:45 1019 30.09 849 25.07 7.3 45.2 88 5.5 42
16:50 1019 30.09 849 25.07 7.2 45 89 5.5 41.9
16:55 1019 30.09 849 25.07 7.2 45 90 5.7 42.2
17:00 1019 30.09 849 25.07 7.3 45.1 89 5.5 41.9
17:05 1020 30.12 849 25.07 7.3 45.1 88 5.3 41.6
17:10 1020 30.12 849 25.07 7.2 44.9 88 5.3 41.5
17:15 1020 30.12 849 25.07 7.1 44.8 89 5.4 41.8
17:20 1020 30.12 849 25.07 7.1 44.8 90 5.6 42
17:25 1020 30.12 849 25.07 7.1 44.8 90 5.6 42
17:30 1020 30.12 849 25.07 7.1 44.7 91 5.7 42.2
17:35 1020 30.12 849 25.07 7.1 44.8 91 5.7 42.3
17:40 1020 30.12 849 25.07 7.1 44.8 91 5.7 42.3
17:45 1020 30.12 849 25.07 7.1 44.7 91 5.6 42.2
17:50 1020 30.12 849 25.07 7 44.6 91 5.7 42.2
17:55 1020 30.12 849 25.07 7 44.6 92 5.8 42.5
18:00 1020 30.12 849 25.07 6.9 44.5 91 5.6 42.1
18:05 1020 30.12 849 25.07 6.9 44.4 92 5.7 42.2
18:10 1020 30.12 849 25.07 6.9 44.4 92 5.7 42.2
18:15 1020 30.12 849 25.07 6.8 44.3 92 5.7 42.2
18:20 1020 30.12 849 25.07 6.8 44.2 94 5.8 42.5
18:25 1020 30.12 849 25.07 6.7 44 94 5.8 42.4
18:30 1020 30.12 849 25.07 6.5 43.7 94 5.5 41.9
18:35 1020 30.12 850 25.1 6.4 43.4 94 5.5 41.8
18:40 1020 30.12 850 25.1 6.3 43.4 94 5.3 41.6
18:45 1020 30.12 850 25.1 6.4 43.5 94 5.4 41.7
18:50 1020 30.12 850 25.1 6.4 43.5 93 5.3 41.6
18:55 1021 30.15 850 25.1 6.5 43.8 93 5.5 41.8
19:00 1021 30.15 850 25.1 6.7 44.1 92 5.5 41.8
19:05 1021 30.15 850 25.1 6.7 44.1 92 5.5 41.8
19:10 1021 30.15 850 25.1 6.7 44.1 92 5.5 41.9
19:15 1021 30.15 850 25.1 6.6 43.9 92 5.4 41.8
19:20 1021 30.15 850 25.1 6.5 43.8 93 5.5 41.8
19:25 1021 30.15 850 25.1 6.4 43.6 92 5.3 41.5
19:30 1021 30.15 850 25.1 6.3 43.4 91 5 41
19:35 1021 30.15 850 25.1 6.3 43.3 91 5 41
19:40 1021 30.15 850 25.1 6.3 43.3 91 4.9 40.9
19:45 1021 30.15 850 25.1 6.2 43.2 90 4.8 40.6
19:50 1021 30.15 850 25.1 6.1 43.1 89 4.5 40.2
19:55 1021 30.15 850 25.1 6.1 43 88 4.2 39.6
20:00 1021 30.15 850 25.1 6.1 43 89 4.4 39.9
20:05 1021 30.15 850 25.1 6.1 43.1 87 4.2 39.5
20:10 1021 30.15 850 25.1 6.1 43 87 4.2 39.5
20:15 1021 30.15 850 25.1 6.2 43.1 87 4.2 39.6
20:20 1021 30.15 850 25.1 6.3 43.3 87 4.3 39.7
20:25 1021 30.15 850 25.1 6.3 43.3 87 4.2 39.6
20:30 1021 30.15 850 25.1 6.3 43.3 87 4.3 39.7
20:35 1021 30.15 850 25.1 6.3 43.3 86 4.1 39.5
20:40 1021 30.15 850 25.1 6.2 43.2 86 4.1 39.3
20:45 1021 30.15 851 25.13 6.3 43.4 85 4 39.3
20:50 1021 30.15 851 25.13 6.4 43.4 85 4 39.3
20:55 1021 30.15 851 25.13 6.5 43.6 86 4.4 39.9
21:00 1021 30.15 851 25.13 6.5 43.7 86 4.4 39.8
21:05 1021 30.15 851 25.13 6.5 43.7 86 4.4 39.8
21:10 1021 30.15 851 25.13 6.5 43.7 87 4.4 40
21:15 1022 30.18 851 25.13 6.5 43.7 86 4.4 40
21:20 1022 30.18 851 25.13 6.5 43.8 87 4.5 40.1
21:25 1022 30.18 851 25.13 6.6 43.8 86 4.4 39.9
21:30 1022 30.18 851 25.13 6.6 43.8 87 4.6 40.3
21:35 1022 30.18 851 25.13 6.6 43.9 86 4.5 40.1
21:40 1022 30.18 851 25.13 6.6 43.9 87 4.6 40.3
21:45 1022 30.18 851 25.13 6.6 43.8 87 4.6 40.3
21:50 1022 30.18 851 25.13 6.5 43.7 87 4.4 40
21:55 1022 30.18 851 25.13 6.5 43.7 87 4.5 40.1
22:00 1022 30.18 851 25.13 6.5 43.7 88 4.6 40.3
22:05 1022 30.18 851 25.13 6.4 43.6 88 4.6 40.3
22:10 1022 30.18 851 25.13 6.5 43.7 88 4.7 40.4
22:15 1022 30.18 851 25.13 6.6 43.8 89 4.8 40.7
22:20 1022 30.18 851 25.13 6.7 44.1 88 4.9 40.9
22:25 1022 30.18 851 25.13 6.7 44.1 88 4.9 40.7
22:30 1022 30.18 851 25.13 6.8 44.2 87 4.8 40.6
22:35 1022 30.18 851 25.13 6.8 44.3 87 4.8 40.7
22:40 1022 30.18 851 25.13 6.9 44.5 87 5 40.9
22:45 1022 30.18 851 25.13 7 44.7 87 5.1 41.1
22:50 1022 30.18 851 25.13 7 44.7 87 5 41.1
22:55 1022 30.18 851 25.13 6.9 44.4 87 4.9 40.9
23:00 1022 30.18 851 25.13 6.9 44.5 87 5 41
23:05 1022 30.18 851 25.13 6.9 44.4 87 4.8 40.7
23:10 1022 30.18 851 25.13 6.9 44.5 87 5 40.9
23:15 1022 30.18 852 25.16 6.9 44.5 88 5.1 41.1
23:20 1022 30.18 852 25.16 6.9 44.4 88 5 41
23:25 1022 30.18 852 25.16 6.8 44.3 88 5 41.1
23:30 1022 30.18 852 25.16 6.7 44.1 88 4.9 40.9
23:35 1022 30.18 852 25.16 6.7 44.1 88 5 40.9
23:40 1022 30.18 852 25.16 6.8 44.2 88 4.9 40.8
23:45 1022 30.18 852 25.16 6.7 44.1 88 5 40.9
23:50 1022 30.18 852 25.16 6.7 44.1 88 4.9 40.9
23:55 1022 30.18 852 25.16 6.7 44.1 88 4.9 40.9
24:00 1022 30.18 852 25.16 6.7 44.1 88 4.9 40.8